Página principal
METAR-TAF:

METAR-TAF

Aeroportos :

Qostanay, Cazaquistão

latitude: 53-12-23N, longitude: 063-33-03E, altura: 182 m

Observação actual do tempo

O boletim foi feito há 14 minutos, às 02:30 UTC
Vento 4 kt de sul, variando entre su-sudeste e sudoeste
Temperatura 11°C
Humidade 50%
Pressão 1014 hPa
Visibilidade 10 km ou mais
sem nuvens abaixo de 1500 metros e sem cumulonimbus

METAR: UAUU 230230Z 19002MPS 160V220 CAVOK 11/01 Q1014 R33/CLRD70 NOSIG RMK QFE745/0993

Hora: 08:44 (02:44 UTC)

Previsão

O boletim foi feito há 3 horas e 44 minutos, às 23:00 UTC
Previsão válida de 23 às 00 UTC a 23 às 09 UTC
Vento 6 kt de sudoeste
Visibilidade 10 km ou mais
Nuvens fragmentadasa uma altura de 3000 ft

TAF: UAUU 222300Z 2300/2309 22003MPS 9999 BKN030

Observações e previsões do tempo de mais de 4000 aeroportos (mensagens METAR e TAF).

As estações disponíveis são os pontos amarelos e vermelhos sobre o mapa.

Mova o rato sobre o mapa para ver o nome da estação.

Depois clique no ponto para visualizar as observações e previsões meteorológicas.

Para alterar o mapa : clique nos botões verdes com uma cruz preta para aumentar o zoom; no botão verde com uma pitada de zoom; ou nas setas verdes para mapas adjacentes.


METAR-TAF: